createdAt,value
2022-09-05T00:00:31.081Z,14.54
2022-09-05T00:01:31.068Z,14.52
2022-09-05T00:02:31.504Z,14.55
2022-09-05T00:03:31.710Z,14.58
2022-09-05T00:04:31.101Z,14.60
2022-09-05T00:05:32.172Z,14.60
2022-09-05T00:06:31.014Z,14.58
2022-09-05T00:07:58.198Z,14.54
2022-09-05T00:08:32.387Z,14.54
2022-09-05T00:09:42.083Z,14.50
2022-09-05T00:10:53.471Z,14.45
2022-09-05T00:11:40.387Z,14.42
2022-09-05T00:13:41.512Z,14.36
2022-09-05T00:15:17.054Z,14.32
2022-09-05T00:15:42.121Z,14.32
2022-09-05T00:16:41.423Z,14.25
2022-09-05T00:19:22.919Z,14.25
2022-09-05T00:23:31.977Z,14.24
2022-09-05T00:24:18.969Z,14.22
2022-09-05T00:24:20.307Z,14.18
2022-09-05T00:24:27.843Z,14.20
2022-09-05T00:24:29.056Z,14.17
2022-09-05T00:24:29.712Z,14.17
2022-09-05T00:25:00.892Z,14.14
2022-09-05T00:25:42.112Z,14.14
2022-09-05T00:26:42.296Z,14.10
2022-09-05T00:27:41.922Z,14.10
2022-09-05T00:28:41.772Z,14.06
2022-09-05T00:30:42.099Z,14.06
2022-09-05T00:31:06.131Z,14.04
2022-09-05T00:31:55.384Z,14.04
2022-09-05T00:32:41.977Z,14.04
2022-09-05T00:33:41.182Z,14.02
2022-09-05T00:34:47.840Z,13.96
2022-09-05T00:35:41.790Z,13.95
2022-09-05T00:36:40.780Z,13.92
2022-09-05T00:37:40.759Z,13.87
2022-09-05T00:38:41.171Z,13.87
2022-09-05T00:39:40.771Z,13.85
2022-09-05T00:40:41.738Z,13.84
2022-09-05T00:41:40.719Z,13.87
2022-09-05T00:42:40.700Z,13.87
2022-09-05T00:43:41.118Z,13.85
2022-09-05T00:44:40.671Z,13.85
2022-09-05T00:45:40.651Z,13.81
2022-09-05T00:46:40.696Z,13.78
2022-09-05T00:47:40.642Z,13.75
2022-09-05T00:48:42.039Z,13.79
2022-09-05T00:49:40.598Z,13.85
2022-09-05T00:50:40.596Z,13.92
2022-09-05T00:51:40.581Z,13.96
2022-09-05T00:52:40.557Z,13.99
2022-09-05T00:53:40.878Z,13.96
2022-09-05T00:54:41.732Z,13.92
2022-09-05T00:55:40.528Z,13.89
2022-09-05T00:56:40.507Z,13.85
2022-09-05T00:57:40.495Z,13.81
2022-09-05T00:58:40.898Z,13.79
2022-09-05T00:59:40.471Z,13.78
2022-09-05T01:00:40.457Z,13.78
2022-09-05T01:01:40.557Z,13.79
2022-09-05T01:02:51.888Z,13.82
2022-09-05T01:03:41.833Z,13.84
2022-09-05T01:04:40.405Z,13.84
2022-09-05T01:05:40.401Z,13.84
2022-09-05T01:06:40.375Z,13.81
2022-09-05T01:07:46.606Z,13.85
2022-09-05T01:08:41.705Z,13.85
2022-09-05T01:09:40.343Z,13.82
2022-09-05T01:10:40.334Z,13.81
2022-09-05T01:11:40.324Z,13.78
2022-09-05T01:12:40.303Z,13.78
2022-09-05T01:13:40.726Z,13.77
2022-09-05T01:14:40.273Z,13.77
2022-09-05T01:15:40.311Z,13.78
2022-09-05T01:16:40.284Z,13.75
2022-09-05T01:17:40.244Z,13.70
2022-09-05T01:18:40.643Z,13.69
2022-09-05T01:19:40.213Z,13.66
2022-09-05T01:20:40.202Z,13.64
2022-09-05T01:21:40.192Z,13.63
2022-09-05T01:22:41.172Z,13.59
2022-09-05T01:23:40.581Z,13.55
2022-09-05T01:24:40.151Z,13.51
2022-09-05T01:25:40.423Z,13.51
2022-09-05T01:26:41.121Z,13.49
2022-09-05T01:28:15.459Z,13.48
2022-09-05T01:29:16.328Z,13.48
2022-09-05T01:29:41.088Z,13.46
2022-09-05T01:30:40.070Z,13.46
2022-09-05T01:31:40.069Z,13.45
2022-09-05T01:32:40.049Z,13.42
2022-09-05T01:33:40.608Z,13.41
2022-09-05T01:34:40.018Z,13.42
2022-09-05T01:35:40.022Z,13.41
2022-09-05T01:36:39.989Z,13.38
2022-09-05T01:37:39.988Z,13.38
2022-09-05T01:38:39.968Z,13.38
2022-09-05T01:40:11.155Z,13.39
2022-09-05T01:40:41.016Z,13.38
2022-09-05T01:41:39.928Z,13.36
2022-09-05T01:42:39.925Z,13.33
2022-09-05T01:43:39.921Z,13.32
2022-09-05T01:44:40.248Z,13.32
2022-09-05T01:45:40.131Z,13.30
2022-09-05T01:46:39.925Z,13.28
2022-09-05T01:47:40.230Z,13.26
2022-09-05T01:48:39.848Z,13.22
2022-09-05T01:49:41.265Z,13.23
2022-09-05T01:50:39.821Z,13.22
2022-09-05T01:51:39.814Z,13.19
2022-09-05T01:52:45.037Z,13.19
2022-09-05T01:53:40.787Z,13.15
2022-09-05T01:54:40.204Z,13.15
2022-09-05T01:56:04.052Z,13.30
2022-09-05T01:56:40.755Z,13.36
2022-09-05T01:57:39.745Z,13.32
2022-09-05T01:58:39.724Z,13.30
2022-09-05T01:59:39.721Z,13.33
2022-09-05T02:00:41.050Z,13.39
2022-09-05T02:01:39.740Z,13.42
2022-09-05T02:02:39.766Z,13.44
2022-09-05T02:03:39.677Z,13.42
2022-09-05T02:04:40.072Z,13.41
2022-09-05T02:05:47.308Z,13.33
2022-09-05T02:06:41.858Z,13.28
2022-09-05T02:07:39.615Z,13.25
2022-09-05T02:08:39.604Z,13.20
2022-09-05T02:09:39.972Z,13.17
2022-09-05T02:10:39.573Z,13.19
2022-09-05T02:11:39.570Z,13.20
2022-09-05T02:12:39.552Z,13.20
2022-09-05T02:13:39.531Z,13.15
2022-09-05T02:14:39.522Z,13.12
2022-09-05T02:15:39.941Z,13.11
2022-09-05T02:16:39.500Z,13.17
2022-09-05T02:17:49.472Z,13.23
2022-09-05T02:18:40.470Z,13.22
2022-09-05T02:19:39.465Z,13.19
2022-09-05T02:20:39.861Z,13.14
2022-09-05T02:21:56.359Z,13.07
2022-09-05T02:22:40.439Z,13.07
2022-09-05T02:23:41.012Z,13.08
2022-09-05T02:24:39.415Z,13.11
2022-09-05T02:26:01.509Z,13.10
2022-09-05T02:26:40.378Z,13.11
2022-09-05T02:28:05.113Z,13.11
2022-09-05T02:28:40.349Z,13.11
2022-09-05T02:29:39.346Z,13.10
2022-09-05T02:30:51.724Z,13.04
2022-09-05T02:31:40.689Z,13.00
2022-09-05T02:32:43.134Z,12.97
2022-09-05T02:33:39.288Z,13.01
2022-09-05T02:34:39.269Z,13.05
2022-09-05T02:35:39.269Z,13.05
2022-09-05T02:36:39.668Z,13.08
2022-09-05T02:40:32.605Z,13.14
2022-09-05T02:40:51.918Z,13.19
2022-09-05T02:45:00.200Z,13.22
2022-09-05T02:45:06.536Z,13.17
2022-09-05T02:45:06.970Z,13.11
2022-09-05T02:45:09.644Z,13.19
2022-09-05T02:45:19.866Z,13.05
2022-09-05T02:45:23.822Z,13.07
2022-09-05T02:45:40.215Z,12.97
2022-09-05T02:46:39.596Z,12.92
2022-09-05T02:47:39.114Z,12.89
2022-09-05T02:48:39.109Z,12.87
2022-09-05T02:52:14.246Z,12.86
2022-09-05T02:55:28.967Z,12.86
2022-09-05T02:57:27.963Z,12.86
2022-09-05T02:57:28.934Z,12.86
2022-09-05T02:57:33.496Z,12.87
2022-09-05T02:57:33.867Z,12.87
2022-09-05T02:57:34.045Z,12.86
2022-09-05T02:57:37.435Z,12.87
2022-09-05T02:58:05.874Z,12.85
2022-09-05T02:59:08.011Z,12.82
2022-09-05T02:59:39.962Z,12.78
2022-09-05T03:00:38.952Z,12.77
2022-09-05T03:01:39.027Z,12.72
2022-09-05T03:02:38.980Z,12.70
2022-09-05T03:03:39.450Z,12.74
2022-09-05T03:04:38.899Z,12.78
2022-09-05T03:05:38.882Z,12.83
2022-09-05T03:06:38.881Z,12.85
2022-09-05T03:07:38.861Z,12.86
2022-09-05T03:08:39.251Z,12.87
2022-09-05T03:09:38.838Z,12.89
2022-09-05T03:10:53.259Z,12.92
2022-09-05T03:11:39.817Z,12.93
2022-09-05T03:12:38.798Z,13.00
2022-09-05T03:13:54.017Z,13.00
2022-09-05T03:14:39.781Z,13.03
2022-09-05T03:15:38.763Z,13.01
2022-09-05T03:16:46.977Z,13.03
2022-09-05T03:17:39.749Z,13.00
2022-09-05T03:18:38.726Z,12.96
2022-09-05T03:19:46.076Z,12.93
2022-09-05T03:20:39.710Z,12.86
2022-09-05T03:21:38.700Z,12.82
2022-09-05T03:22:38.676Z,12.72
2022-09-05T03:23:38.658Z,12.71
2022-09-05T03:24:39.006Z,12.68
2022-09-05T03:25:38.649Z,12.64
2022-09-05T03:26:38.627Z,12.65
2022-09-05T03:27:38.618Z,12.62
2022-09-05T03:28:39.029Z,12.62
2022-09-05T03:29:38.586Z,12.64
2022-09-05T03:30:38.605Z,12.64
2022-09-05T03:31:38.568Z,12.64
2022-09-05T03:32:41.989Z,12.60
2022-09-05T03:33:38.905Z,12.59
2022-09-05T03:34:38.527Z,12.60
2022-09-05T03:35:38.520Z,12.62
2022-09-05T03:36:38.497Z,12.62
2022-09-05T03:37:38.485Z,12.62
2022-09-05T03:38:39.135Z,12.57
2022-09-05T03:39:38.487Z,12.57
2022-09-05T03:40:38.449Z,12.54
2022-09-05T03:41:40.717Z,12.56
2022-09-05T03:42:38.429Z,12.52
2022-09-05T03:43:38.831Z,12.50
2022-09-05T03:44:38.407Z,12.49
2022-09-05T03:45:38.395Z,12.47
2022-09-05T03:46:38.372Z,12.46
2022-09-05T03:47:38.362Z,12.46
2022-09-05T03:48:38.855Z,12.46
2022-09-05T03:53:11.490Z,12.49
2022-09-05T03:57:01.789Z,12.59
2022-09-05T03:57:04.644Z,12.54
2022-09-05T03:57:07.182Z,12.62
2022-09-05T03:57:16.929Z,12.65
2022-09-05T03:57:23.974Z,12.67
2022-09-05T03:57:26.005Z,12.67
2022-09-05T03:57:26.663Z,12.67
2022-09-05T03:57:46.236Z,12.70
2022-09-05T03:58:56.809Z,12.75
2022-09-05T03:59:45.214Z,12.78
2022-09-05T04:00:46.565Z,12.78
2022-09-05T04:05:15.219Z,12.82
2022-09-05T04:06:28.790Z,12.79
2022-09-05T04:08:10.804Z,12.82
2022-09-05T04:08:17.042Z,12.83
2022-09-05T04:08:18.070Z,12.87
2022-09-05T04:08:18.074Z,12.83
2022-09-05T04:08:24.609Z,12.87
2022-09-05T04:08:42.790Z,12.87
2022-09-05T04:09:50.478Z,12.90
2022-09-05T04:10:39.333Z,12.87
2022-09-05T04:11:38.066Z,12.86
2022-09-05T04:12:38.042Z,12.86
2022-09-05T04:13:38.040Z,12.87
2022-09-05T04:14:38.700Z,12.90
2022-09-05T04:15:38.026Z,12.92
2022-09-05T04:16:38.057Z,12.92
2022-09-05T04:17:37.991Z,12.90
2022-09-05T04:18:37.973Z,12.89
2022-09-05T04:19:38.258Z,12.89
2022-09-05T04:20:40.459Z,12.87
2022-09-05T04:21:37.948Z,12.85
2022-09-05T04:22:37.926Z,12.82
2022-09-05T04:23:37.909Z,12.77
2022-09-05T04:24:37.897Z,12.72
2022-09-05T04:25:38.387Z,12.71
2022-09-05T04:26:37.875Z,12.68
2022-09-05T04:27:37.866Z,12.67
2022-09-05T04:28:37.837Z,12.67
2022-09-05T04:29:38.086Z,12.64
2022-09-05T04:30:40.256Z,12.64
2022-09-05T04:31:37.847Z,12.59
2022-09-05T04:32:37.794Z,12.57
2022-09-05T04:33:37.786Z,12.57
2022-09-05T04:34:38.140Z,12.57
2022-09-05T04:35:37.758Z,12.54
2022-09-05T04:36:37.738Z,12.56
2022-09-05T04:37:37.742Z,12.56
2022-09-05T04:38:39.162Z,12.54
2022-09-05T04:39:38.110Z,12.56
2022-09-05T04:40:37.691Z,12.54
2022-09-05T04:41:39.793Z,12.57
2022-09-05T04:42:37.681Z,12.56
2022-09-05T04:43:37.655Z,12.56
2022-09-05T04:44:38.072Z,12.54
2022-09-05T04:45:37.659Z,12.53
2022-09-05T04:46:48.707Z,12.52
2022-09-05T04:47:38.609Z,12.52
2022-09-05T04:48:37.584Z,12.52
2022-09-05T04:49:37.582Z,12.53
2022-09-05T04:50:38.109Z,12.54
2022-09-05T04:51:37.552Z,12.57
2022-09-05T04:52:37.544Z,12.59
2022-09-05T04:53:37.540Z,12.57
2022-09-05T04:54:37.518Z,12.59
2022-09-05T04:55:37.809Z,12.59
2022-09-05T04:56:37.488Z,12.62
2022-09-05T04:57:37.472Z,12.65
2022-09-05T04:58:54.217Z,12.65
2022-09-05T05:01:40.702Z,12.67
2022-09-05T05:05:59.772Z,12.72
2022-09-05T05:06:02.571Z,12.78
2022-09-05T05:06:02.609Z,12.83
2022-09-05T05:06:13.901Z,12.87
2022-09-05T05:06:15.114Z,12.87
2022-09-05T05:06:17.344Z,12.86
2022-09-05T05:06:45.657Z,12.89
2022-09-05T05:07:38.419Z,12.93
2022-09-05T05:08:38.913Z,13.00
2022-09-05T05:09:37.346Z,13.03
2022-09-05T05:17:07.575Z,13.07
2022-09-05T05:17:56.420Z,13.10
2022-09-05T05:17:58.509Z,13.12
2022-09-05T05:17:59.868Z,13.10
2022-09-05T05:18:01.160Z,13.08
2022-09-05T05:18:06.544Z,13.14
2022-09-05T05:18:07.632Z,13.20
2022-09-05T05:18:13.274Z,13.15
2022-09-05T05:18:52.396Z,13.20
2022-09-05T05:19:38.243Z,13.26
2022-09-05T05:20:42.129Z,13.26
2022-09-05T05:21:38.488Z,13.29
2022-09-05T05:22:37.164Z,13.33
2022-09-05T05:23:37.144Z,13.36
2022-09-05T05:24:37.142Z,13.41
2022-09-05T05:25:37.125Z,13.44
2022-09-05T05:26:37.114Z,13.48
2022-09-05T05:27:37.539Z,13.51
2022-09-05T05:28:37.092Z,13.54
2022-09-05T05:29:37.073Z,13.54
2022-09-05T05:30:37.061Z,13.57
2022-09-05T05:31:37.115Z,13.62
2022-09-05T05:32:45.793Z,13.64
2022-09-05T05:33:38.014Z,13.67
2022-09-05T05:34:37.003Z,13.70
2022-09-05T05:35:39.821Z,13.73
2022-09-05T05:36:37.989Z,13.78
2022-09-05T05:37:37.403Z,13.84
2022-09-05T05:38:36.992Z,13.84
2022-09-05T05:39:36.987Z,13.88
2022-09-05T05:40:39.653Z,13.92
2022-09-05T05:41:37.932Z,13.96
2022-09-05T05:42:37.282Z,13.99
2022-09-05T05:43:36.882Z,14.03
2022-09-05T05:44:36.881Z,14.07
2022-09-05T05:45:36.949Z,14.09
2022-09-05T05:46:36.857Z,14.06
2022-09-05T05:47:37.161Z,14.06
2022-09-05T05:48:36.838Z,14.04
2022-09-05T05:49:36.820Z,14.04
2022-09-05T05:50:36.799Z,14.06
2022-09-05T05:51:53.329Z,14.09
2022-09-05T05:52:38.217Z,14.12
2022-09-05T05:53:43.360Z,14.17
2022-09-05T05:54:37.753Z,14.20
2022-09-05T05:55:51.950Z,14.25
2022-09-05T05:56:37.742Z,14.32
2022-09-05T05:57:36.706Z,14.37
2022-09-05T05:58:37.039Z,14.43
2022-09-05T05:59:36.678Z,14.52
2022-09-05T06:00:36.668Z,14.58
2022-09-05T06:01:37.712Z,14.65
2022-09-05T06:02:36.770Z,14.75
2022-09-05T06:03:36.788Z,14.83
2022-09-05T06:04:36.705Z,14.89
2022-09-05T06:05:37.602Z,14.94
2022-09-05T06:06:36.588Z,15.01
2022-09-05T06:07:48.278Z,15.09
2022-09-05T06:12:48.716Z,15.13
2022-09-05T06:14:48.637Z,15.10
2022-09-05T06:14:51.207Z,15.11
2022-09-05T06:15:02.948Z,15.17
2022-09-05T06:15:05.859Z,15.23
2022-09-05T06:15:08.975Z,15.36
2022-09-05T06:15:09.131Z,15.28
2022-09-05T06:15:37.466Z,15.43
2022-09-05T06:16:36.564Z,15.49
2022-09-05T06:17:36.436Z,15.57
2022-09-05T06:18:36.736Z,15.65
2022-09-05T06:20:47.451Z,15.69
2022-09-05T06:22:06.137Z,15.92
2022-09-05T06:22:10.955Z,16.48
2022-09-05T06:22:37.373Z,17.12
2022-09-05T06:23:39.570Z,17.46
2022-09-05T06:24:36.347Z,17.77
2022-09-05T06:25:36.334Z,18.14
2022-09-05T06:26:36.329Z,18.48
2022-09-05T06:27:36.314Z,18.72
2022-09-05T06:28:37.337Z,18.66
2022-09-05T06:29:38.353Z,18.72
2022-09-05T06:30:36.289Z,18.87
2022-09-05T06:31:36.314Z,18.84
2022-09-05T06:32:36.760Z,18.81
2022-09-05T06:33:36.631Z,18.76
2022-09-05T06:34:36.253Z,18.94
2022-09-05T06:35:36.204Z,19.13
2022-09-05T06:36:38.943Z,19.47
2022-09-05T06:37:36.177Z,19.74
2022-09-05T06:38:36.164Z,19.83
2022-09-05T06:39:36.538Z,19.94
2022-09-05T06:40:36.152Z,20.21
2022-09-05T06:41:36.173Z,20.33
2022-09-05T06:42:42.530Z,20.55
2022-09-05T06:43:37.116Z,20.67
2022-09-05T06:44:36.099Z,20.67
2022-09-05T06:45:36.111Z,20.77
2022-09-05T06:47:07.757Z,20.67
2022-09-05T06:47:37.086Z,20.79
2022-09-05T06:48:46.046Z,20.87
2022-09-05T06:49:39.365Z,20.91
2022-09-05T06:50:43.425Z,20.99
2022-09-05T06:51:36.993Z,21.17
2022-09-05T06:52:36.993Z,21.19
2022-09-05T06:53:35.975Z,21.31
2022-09-05T06:54:35.962Z,21.54
2022-09-05T06:55:36.340Z,21.35
2022-09-05T06:56:35.977Z,21.17
2022-09-05T06:57:35.922Z,20.85
2022-09-05T06:58:36.914Z,20.50
2022-09-05T06:59:35.906Z,20.64
2022-09-05T07:00:35.923Z,20.82
2022-09-05T07:01:59.535Z,21.12
2022-09-05T07:02:58.747Z,21.32
2022-09-05T07:03:36.863Z,21.58
2022-09-05T07:05:37.406Z,21.71
2022-09-05T07:05:40.023Z,21.90
2022-09-05T07:06:50.750Z,22.06
2022-09-05T07:07:36.831Z,22.07
2022-09-05T07:08:37.149Z,22.20
2022-09-05T07:09:35.804Z,22.22
2022-09-05T07:10:38.977Z,22.30
2022-09-05T07:11:35.753Z,22.09
2022-09-05T07:12:36.401Z,21.71
2022-09-05T07:13:38.807Z,21.98
2022-09-05T07:14:36.713Z,21.77
2022-09-05T07:15:35.692Z,21.77
2022-09-05T07:16:38.071Z,21.99
2022-09-05T07:17:48.357Z,22.10
2022-09-05T07:18:36.668Z,22.21
2022-09-05T07:19:35.659Z,22.35
2022-09-05T07:21:15.680Z,22.62
2022-09-05T07:21:37.044Z,22.83
2022-09-05T07:22:46.928Z,22.85
2022-09-05T07:24:05.990Z,22.94
2022-09-05T07:24:54.214Z,23.16
2022-09-05T07:25:37.623Z,23.28
2022-09-05T07:26:52.169Z,23.27
2022-09-05T07:27:41.932Z,23.20
2022-09-05T07:28:36.550Z,22.94
2022-09-05T07:29:35.522Z,22.80
2022-09-05T07:30:35.540Z,22.94
2022-09-05T07:31:37.732Z,23.31
2022-09-05T07:32:35.483Z,23.32
2022-09-05T07:33:35.469Z,23.46
2022-09-05T07:34:35.470Z,23.36
2022-09-05T07:35:41.525Z,23.33
2022-09-05T07:36:36.469Z,23.55
2022-09-05T07:37:35.411Z,23.88
2022-09-05T07:38:52.294Z,24.05
2022-09-05T07:39:36.435Z,24.43
2022-09-05T07:40:35.428Z,24.81
2022-09-05T07:41:35.475Z,24.81
2022-09-05T07:42:35.709Z,24.34
2022-09-05T07:43:35.341Z,24.27
2022-09-05T07:44:35.331Z,24.49
2022-09-05T07:45:35.395Z,24.99
2022-09-05T07:46:35.620Z,25.20
2022-09-05T07:47:35.302Z,25.33
2022-09-05T07:48:35.795Z,25.25
2022-09-05T07:49:35.262Z,25.23
2022-09-05T07:56:46.313Z,25.47
2022-09-05T07:56:49.749Z,26.10
2022-09-05T07:56:50.275Z,25.98
2022-09-05T07:56:54.033Z,25.92
2022-09-05T07:56:54.262Z,25.94
2022-09-05T07:56:54.711Z,26.02
2022-09-05T07:57:07.928Z,25.88
2022-09-05T07:57:51.701Z,25.95
2022-09-05T07:58:36.162Z,26.21
2022-09-05T07:59:35.163Z,26.44
2022-09-05T08:00:35.185Z,26.57
2022-09-05T08:01:39.428Z,26.44
2022-09-05T08:02:35.108Z,26.35
2022-09-05T08:03:35.095Z,26.37
2022-09-05T08:04:35.137Z,26.55
2022-09-05T08:05:35.935Z,26.55
2022-09-05T08:07:45.562Z,26.82
2022-09-05T08:07:48.007Z,27.14
2022-09-05T08:08:36.054Z,27.14
2022-09-05T08:10:08.662Z,26.87
2022-09-05T08:11:23.162Z,26.39
2022-09-05T08:11:36.082Z,26.44
2022-09-05T08:12:37.328Z,26.69
2022-09-05T08:13:36.251Z,26.77
2022-09-05T08:14:43.505Z,26.92
2022-09-05T08:16:00.805Z,26.87
2022-09-05T08:16:35.992Z,26.92
2022-09-05T08:17:34.932Z,26.80
2022-09-05T08:18:35.243Z,26.89
2022-09-05T08:19:34.893Z,26.70
2022-09-05T08:20:34.892Z,26.76
2022-09-05T08:21:39.772Z,26.45
2022-09-05T08:22:35.921Z,26.02
2022-09-05T08:23:34.843Z,25.52
2022-09-05T08:24:34.835Z,25.24
2022-09-05T08:25:37.583Z,25.10
2022-09-05T08:26:35.810Z,25.02
2022-09-05T08:27:34.794Z,24.81
2022-09-05T08:28:39.139Z,24.57
2022-09-05T08:29:35.831Z,24.52
2022-09-05T08:30:34.992Z,24.46
2022-09-05T08:31:34.828Z,24.40
2022-09-05T08:32:35.400Z,24.34
2022-09-05T08:33:35.102Z,24.24
2022-09-05T08:34:44.745Z,24.03
2022-09-05T08:35:35.703Z,23.83
2022-09-05T08:36:34.686Z,23.54
2022-09-05T08:37:34.673Z,23.32
2022-09-05T08:38:40.447Z,23.19
2022-09-05T08:39:36.075Z,23.10
2022-09-05T08:40:34.632Z,22.98
2022-09-05T08:41:50.027Z,22.95
2022-09-05T08:42:35.636Z,22.90
2022-09-05T08:46:38.065Z,22.90
2022-09-05T08:46:41.094Z,22.98
2022-09-05T08:46:48.425Z,23.04
2022-09-05T08:46:48.502Z,23.02
2022-09-05T08:47:45.631Z,23.02
2022-09-05T08:48:35.534Z,22.97
2022-09-05T08:49:37.893Z,22.85
2022-09-05T08:50:35.516Z,22.83
2022-09-05T08:51:34.483Z,22.86
2022-09-05T08:52:35.483Z,22.90
2022-09-05T08:53:46.293Z,22.95
2022-09-05T08:54:35.904Z,23.01
2022-09-05T08:55:34.476Z,23.02
2022-09-05T08:56:34.463Z,23.02
2022-09-05T08:57:34.415Z,23.05
2022-09-05T08:58:35.413Z,23.05
2022-09-05T08:59:34.711Z,23.09
2022-09-05T09:00:34.854Z,23.12
2022-09-05T09:02:00.677Z,23.15
2022-09-05T09:02:46.553Z,23.16
2022-09-05T09:03:35.399Z,23.20
2022-09-05T09:05:00.742Z,23.22
2022-09-05T09:06:12.311Z,23.25
2022-09-05T09:06:35.312Z,23.28
2022-09-05T09:07:50.631Z,23.27
2022-09-05T09:08:35.304Z,23.22
2022-09-05T09:09:34.255Z,23.12
2022-09-05T09:10:34.676Z,23.15
2022-09-05T09:11:34.243Z,23.15
2022-09-05T09:12:34.226Z,23.23
2022-09-05T09:13:34.213Z,23.36
2022-09-05T09:14:34.193Z,23.39
2022-09-05T09:15:34.226Z,23.33
2022-09-05T09:16:34.243Z,23.25
2022-09-05T09:17:34.164Z,23.31
2022-09-05T09:18:36.035Z,23.32
2022-09-05T09:19:34.135Z,23.35
2022-09-05T09:20:34.503Z,23.39
2022-09-05T09:21:34.113Z,23.36
2022-09-05T09:22:34.082Z,23.40
2022-09-05T09:23:34.137Z,23.46
2022-09-05T09:24:34.069Z,23.40
2022-09-05T09:25:34.420Z,23.47
2022-09-05T09:26:34.034Z,23.55
2022-09-05T09:28:43.735Z,23.58
2022-09-05T09:28:47.246Z,23.68
2022-09-05T09:29:35.014Z,23.76
2022-09-05T09:30:34.405Z,23.83
2022-09-05T09:31:34.031Z,23.90
2022-09-05T09:32:33.970Z,23.97
2022-09-05T09:33:33.983Z,23.98
2022-09-05T09:34:38.217Z,24.00
2022-09-05T09:35:35.364Z,24.08
2022-09-05T09:36:33.918Z,24.12
2022-09-05T09:37:50.895Z,24.15
2022-09-05T09:38:34.886Z,24.21
2022-09-05T09:39:38.946Z,24.28
2022-09-05T09:40:35.228Z,24.39
2022-09-05T09:41:33.854Z,24.46
2022-09-05T09:42:34.141Z,24.43
2022-09-05T09:43:33.843Z,24.43
2022-09-05T09:44:33.802Z,24.43
2022-09-05T09:45:33.801Z,24.47
2022-09-05T09:46:35.828Z,24.52
2022-09-05T09:47:34.786Z,24.58
2022-09-05T09:48:33.752Z,24.60
2022-09-05T09:49:33.749Z,24.67
2022-09-05T09:50:33.742Z,24.62
2022-09-05T09:51:34.153Z,24.64
2022-09-05T09:52:33.714Z,24.73
2022-09-05T09:53:37.262Z,24.78
2022-09-05T09:54:33.681Z,24.90
2022-09-05T09:55:33.693Z,24.96
2022-09-05T09:56:34.092Z,25.06
2022-09-05T09:57:33.650Z,25.18
2022-09-05T09:58:33.656Z,25.28
2022-09-05T09:59:33.650Z,25.27
2022-09-05T10:00:33.628Z,25.28
2022-09-05T10:01:36.164Z,25.25
2022-09-05T10:04:19.019Z,25.27
2022-09-05T10:10:35.549Z,25.23
2022-09-05T10:10:37.829Z,25.24
2022-09-05T10:10:45.059Z,25.43
2022-09-05T10:10:45.166Z,25.45
2022-09-05T10:10:49.029Z,25.33
2022-09-05T10:10:54.447Z,25.32
2022-09-05T10:10:56.269Z,25.32
2022-09-05T10:11:01.877Z,25.50
2022-09-05T10:11:53.610Z,25.50
2022-09-05T10:12:34.764Z,25.60
2022-09-05T10:13:33.441Z,25.67
2022-09-05T10:14:49.125Z,25.77
2022-09-05T10:15:34.418Z,25.88
2022-09-05T10:16:33.865Z,25.95
2022-09-05T10:17:33.383Z,26.01
2022-09-05T10:18:33.383Z,26.10
2022-09-05T10:20:34.354Z,26.21
2022-09-05T10:21:33.341Z,26.29
2022-09-05T10:22:36.326Z,26.33
2022-09-05T10:23:33.315Z,26.39
2022-09-05T10:24:33.304Z,26.39
2022-09-05T10:25:33.288Z,26.40
2022-09-05T10:26:33.271Z,26.52
2022-09-05T10:27:33.582Z,26.63
2022-09-05T10:28:33.250Z,26.69
2022-09-05T10:29:36.805Z,26.80
2022-09-05T10:33:55.516Z,26.87
2022-09-05T10:35:13.823Z,26.87
2022-09-05T10:35:14.236Z,26.85
2022-09-05T10:35:17.910Z,26.88
2022-09-05T10:35:44.386Z,26.75
2022-09-05T10:36:43.325Z,26.66
2022-09-05T10:37:43.324Z,26.66
2022-09-05T10:38:43.724Z,26.60
2022-09-05T10:39:43.353Z,26.58
2022-09-05T10:41:19.916Z,26.50
2022-09-05T10:41:44.295Z,26.54
2022-09-05T10:42:46.361Z,26.62
2022-09-05T10:43:44.395Z,26.72
2022-09-05T10:44:43.261Z,26.76
2022-09-05T10:45:43.263Z,26.75
2022-09-05T10:46:51.150Z,26.73
2022-09-05T10:47:44.212Z,26.70
2022-09-05T10:48:43.258Z,26.62
2022-09-05T10:49:43.196Z,26.67
2022-09-05T10:50:43.178Z,26.69
2022-09-05T10:51:43.141Z,26.73
2022-09-05T10:52:44.142Z,26.72
2022-09-05T10:53:43.564Z,26.80
2022-09-05T10:54:43.105Z,26.80
2022-09-05T10:55:43.092Z,26.81
2022-09-05T10:56:43.101Z,26.85
2022-09-05T10:57:43.084Z,26.92
2022-09-05T11:00:32.575Z,26.95
2022-09-05T11:02:16.392Z,27.17
2022-09-05T11:02:19.132Z,27.06
2022-09-05T11:02:29.474Z,27.19
2022-09-05T11:02:46.747Z,27.21
2022-09-05T11:03:43.486Z,27.27
2022-09-05T11:04:49.902Z,27.32
2022-09-05T11:05:44.003Z,27.43
2022-09-05T11:06:42.954Z,27.51
2022-09-05T11:07:42.944Z,27.62
2022-09-05T11:08:42.964Z,27.67
2022-09-05T11:09:42.925Z,27.66
2022-09-05T11:10:42.904Z,27.74
2022-09-05T11:11:42.896Z,27.66
2022-09-05T11:12:42.912Z,27.63
2022-09-05T11:13:42.878Z,27.63
2022-09-05T11:14:43.202Z,27.63
2022-09-05T11:15:44.103Z,27.62
2022-09-05T11:16:43.906Z,27.65
2022-09-05T11:17:42.815Z,27.69
2022-09-05T11:18:55.105Z,27.81
2022-09-05T11:19:44.170Z,27.90
2022-09-05T11:20:42.775Z,27.96
2022-09-05T11:21:42.773Z,27.93
2022-09-05T11:22:42.745Z,27.94
2022-09-05T11:23:43.350Z,27.93
2022-09-05T11:24:42.755Z,27.97
2022-09-05T11:25:42.725Z,28.02
2022-09-05T11:26:42.695Z,28.06
2022-09-05T11:27:42.703Z,28.11
2022-09-05T11:28:55.887Z,28.22
2022-09-05T11:29:44.064Z,28.30
2022-09-05T11:30:42.725Z,28.29
2022-09-05T11:33:58.808Z,28.22
2022-09-05T11:39:45.855Z,28.21
2022-09-05T11:39:46.549Z,28.33
2022-09-05T11:39:52.578Z,28.29
2022-09-05T11:39:54.161Z,28.22
2022-09-05T11:40:04.352Z,28.27
2022-09-05T11:40:06.270Z,28.54
2022-09-05T11:40:06.719Z,28.41
2022-09-05T11:40:08.724Z,28.33
2022-09-05T11:41:01.037Z,28.64
2022-09-05T11:41:43.597Z,28.70
2022-09-05T11:42:42.494Z,28.76
2022-09-05T11:43:42.484Z,28.83
2022-09-05T11:44:42.475Z,28.85
2022-09-05T11:45:42.465Z,28.85
2022-09-05T11:46:42.902Z,28.77
2022-09-05T11:47:44.621Z,28.68
2022-09-05T11:48:52.971Z,28.70
2022-09-05T11:49:43.407Z,28.76
2022-09-05T11:50:42.390Z,28.70
2022-09-05T11:51:42.434Z,28.66
2022-09-05T11:52:42.385Z,28.61
2022-09-05T11:53:42.371Z,28.71
2022-09-05T11:54:42.394Z,28.86
2022-09-05T11:55:42.330Z,28.92
2022-09-05T11:56:45.737Z,28.98
2022-09-05T11:57:43.358Z,28.98
2022-09-05T11:58:45.172Z,29.06
2022-09-05T11:59:44.859Z,29.11
2022-09-05T12:00:42.276Z,29.18
2022-09-05T12:01:43.927Z,29.14
2022-09-05T12:02:42.369Z,28.98
2022-09-05T12:03:59.368Z,28.92
2022-09-05T12:04:43.277Z,28.96
2022-09-05T12:05:50.088Z,29.08
2022-09-05T12:06:47.850Z,29.18
2022-09-05T12:07:43.491Z,29.23
2022-09-05T12:08:43.416Z,29.26
2022-09-05T12:09:42.163Z,29.30
2022-09-05T12:10:46.989Z,29.27
2022-09-05T12:11:43.295Z,29.18
2022-09-05T12:12:43.361Z,29.23
2022-09-05T12:13:42.130Z,29.23
2022-09-05T12:14:49.300Z,29.23
2022-09-05T12:15:49.311Z,29.27
2022-09-05T12:16:43.089Z,29.36
2022-09-05T12:17:42.046Z,29.43
2022-09-05T12:18:42.375Z,29.51
2022-09-05T12:19:42.027Z,29.55
2022-09-05T12:20:43.332Z,29.53
2022-09-05T12:21:42.026Z,29.46
2022-09-05T12:22:42.156Z,29.43
2022-09-05T12:24:07.798Z,29.42
2022-09-05T12:25:25.307Z,29.45
2022-09-05T12:27:39.806Z,29.52
2022-09-05T12:27:44.777Z,29.43
2022-09-05T12:27:45.984Z,29.52
2022-09-05T12:29:33.965Z,29.53
2022-09-05T12:29:48.727Z,29.65
2022-09-05T12:31:09.964Z,29.67
2022-09-05T12:32:59.461Z,29.74
2022-09-05T12:35:45.539Z,29.83
2022-09-05T12:36:04.817Z,29.94
2022-09-05T12:36:12.350Z,30.10
2022-09-05T12:39:59.554Z,30.26
2022-09-05T12:40:38.345Z,30.13
2022-09-05T12:40:54.319Z,30.17
2022-09-05T12:41:33.446Z,30.24
2022-09-05T12:41:37.661Z,30.24
2022-09-05T12:41:42.175Z,30.05
2022-09-05T12:42:09.935Z,30.31
2022-09-05T12:42:54.721Z,30.37
2022-09-05T12:44:29.938Z,30.37
2022-09-05T12:44:44.816Z,30.38
2022-09-05T12:45:41.875Z,30.45
2022-09-05T12:46:41.687Z,30.53
2022-09-05T12:47:41.677Z,30.64
2022-09-05T12:48:42.066Z,30.70
2022-09-05T12:49:47.400Z,30.76
2022-09-05T12:50:42.649Z,30.76
2022-09-05T12:51:46.568Z,30.76
2022-09-05T12:52:42.655Z,30.82
2022-09-05T12:53:41.639Z,30.80
2022-09-05T12:54:41.596Z,30.83
2022-09-05T12:55:41.571Z,30.94